Cdry Blue — ICOB — position and weather

sailwx.info

Track history (hours):
 
Tides and Currents Weather Stations Pressure Air Temp Water Temp Dewpoint Dewpoint Depression Visibility Wind Speed Wind Dir Waves Ship Positions

Cdry Blue

Last reported at 2016-Jul-27 16:32 UTC. Time now 2016-Jul-27 17:16 UTC.
Position N 44°23' E 008°55'.

Length 108 m; draft 7.1 m.

Type: Cargo ship. MMSI: 247289300.

Date/timePositionNaut miles runAvg speedWind from/ knotsBaromVisibWave heightAir tempDewpointWater temp
2016-Jul-27 16:32N 44°23' E 008°55'0 0.0
2016-Jul-27 15:32N 44°23' E 008°55'0 0.0
2016-Jul-27 14:32N 44°23' E 008°55'0 0.0
2016-Jul-27 13:32N 44°23' E 008°55'0 0.0
2016-Jul-27 12:32N 44°23' E 008°55'0 0.0
2016-Jul-27 11:29N 44°23' E 008°55'0 0.0
2016-Jul-27 10:32N 44°23' E 008°55'0 0.0
2016-Jul-27 09:32N 44°23' E 008°55'0 0.0
2016-Jul-27 08:32N 44°23' E 008°55'0 0.0
2016-Jul-27 07:32N 44°23' E 008°55'0 0.0
2016-Jul-27 06:32N 44°23' E 008°55'0 0.0
2016-Jul-27 05:32N 44°23' E 008°55'0 0.0
2016-Jul-27 04:32N 44°23' E 008°55'0 0.0
2016-Jul-27 03:32N 44°23' E 008°55'0 0.0
2016-Jul-27 02:32N 44°23' E 008°55'0 0.0
2016-Jul-27 01:32N 44°23' E 008°55'0 0.0
2016-Jul-27 00:32N 44°23' E 008°55'0 0.1
2016-Jul-26 23:32N 44°23' E 008°55'0 0.0
2016-Jul-26 22:29N 44°23' E 008°55'0 0.1
2016-Jul-26 21:32N 44°23' E 008°55'0 0.1
2016-Jul-26 20:32N 44°23' E 008°55'0 0.0
2016-Jul-26 19:32N 44°23' E 008°55'0 0.0
2016-Jul-26 18:32N 44°23' E 008°55'0 0.1
2016-Jul-26 17:32N 44°23' E 008°55'0 0.0
2016-Jul-26 16:32N 44°23' E 008°55'0 0.0
2016-Jul-26 15:32N 44°23' E 008°55'0 0.0
2016-Jul-26 14:32N 44°23' E 008°55'0 0.0
2016-Jul-26 13:32N 44°23' E 008°55'0 0.0
2016-Jul-26 12:29N 44°23' E 008°55'0 0.0
2016-Jul-26 11:32N 44°23' E 008°55'0 0.0
2016-Jul-26 10:26N 44°23' E 008°55'0 0.0
2016-Jul-26 09:32N 44°23' E 008°55'1 1.1
2016-Jul-26 08:33N 44°23' E 008°55'9 9.5
2016-Jul-26 07:33N 44°15' E 009°03'1111.3
2016-Jul-26 06:33N 44°04' E 009°09'1211.7
2016-Jul-26 05:33N 43°54' E 009°15'1111.2
2016-Jul-26 04:33N 43°43' E 009°22'1111.4
2016-Jul-26 03:33N 43°33' E 009°28'1111.0
2016-Jul-26 02:32N 43°25' E 009°39'1010.7
2016-Jul-26 01:33N 43°19' E 009°51'1110.5
2016-Jul-26 00:33N 43°12' E 010°01'1010.2
2016-Jul-25 23:33N 43°05' E 010°12'1010.3
2016-Jul-25 22:34N 42°59' E 010°23'10 9.8
2016-Jul-25 21:33N 42°51' E 010°31'12 9.9
2016-Jul-25 20:23N 42°42' E 010°41'8 9.8
2016-Jul-25 19:33N 42°36' E 010°48'11 9.5
2016-Jul-25 18:27N 42°27' E 010°57'24210.5
2016-Jul-24 19:27N 39°51' E 015°03'4210.7
2016-Jul-24 15:30N 39°11' E 015°20'1010.3
2016-Jul-24 14:33N 39°02' E 015°24'1010.3
2016-Jul-24 13:33N 38°52' E 015°28'1110.8
2016-Jul-24 12:32N 38°42' E 015°33'1010.6
2016-Jul-24 11:33N 38°32' E 015°37'1010.3
2016-Jul-24 10:33N 38°22' E 015°41'8 8.3
2016-Jul-24 09:33N 38°14' E 015°38'1010.0
2016-Jul-24 08:33N 38°04' E 015°35'10 9.8
2016-Jul-24 07:32N 37°55' E 015°38'1110.9
2016-Jul-24 06:33N 37°52' E 015°51'  
2016-Jul-20 16:11N 38°11' E 016°29'3011.4
2016-Jul-20 13:33N 37°52' E 015°60'1111.1
2016-Jul-20 12:33N 37°53' E 015°46'1111.1
2016-Jul-20 11:33N 37°60' E 015°35'1414.2
2016-Jul-20 10:33N 38°14' E 015°36'1110.9
2016-Jul-20 09:33N 38°25' E 015°37'1212.5
2016-Jul-20 08:33N 38°36' E 015°30'1312.7
2016-Jul-20 07:32N 38°48' E 015°23'1212.7
2016-Jul-20 06:34N 38°59' E 015°17'1312.5
2016-Jul-20 05:31N 39°11' E 015°09'8612.3
2016-Jul-19 22:31N 40°24' E 014°12'1212.8
2016-Jul-19 21:33N 40°32' E 013°59'1313.0
2016-Jul-19 20:33N 40°40' E 013°46'1313.0
2016-Jul-19 19:34N 40°49' E 013°34'1313.2
2016-Jul-19 18:33N 40°57' E 013°20'1313.2
2016-Jul-19 17:34N 41°05' E 013°06'1413.2
2016-Jul-19 16:29N 41°13' E 012°51'1213.3
2016-Jul-19 15:33N 41°21' E 012°37'1313.3
2016-Jul-19 14:33N 41°28' E 012°23'1313.2
2016-Jul-19 13:33N 41°37' E 012°10'5313.3
2016-Jul-19 09:33N 42°13' E 011°17'1613.5
2016-Jul-19 08:22N 42°24' E 011°01'1313.3
2016-Jul-19 07:24N 42°34' E 010°50'3913.6
2016-Jul-19 04:33N 43°03' E 010°15'1312.9
2016-Jul-19 03:33N 43°11' E 010°02'1313.3
2016-Jul-19 02:33N 43°20' E 009°48'1313.2
2016-Jul-19 01:33N 43°28' E 009°34'1212.4
2016-Jul-19 00:33N 43°39' E 009°24'1312.6
2016-Jul-18 23:33N 43°50' E 009°17'1312.8
2016-Jul-18 22:33N 44°02' E 009°10'1312.8
2016-Jul-18 21:33N 44°13' E 009°02'1212.1
2016-Jul-18 20:33N 44°24' E 008°54'1 1.3
2016-Jul-18 19:32N 44°24' E 008°52'0 0.0
2016-Jul-18 18:32N 44°24' E 008°52'0 0.0
2016-Jul-18 17:32N 44°24' E 008°52'0 0.0
2016-Jul-18 16:32N 44°24' E 008°52'0 0.0
2016-Jul-18 15:32N 44°24' E 008°52'0 0.0
2016-Jul-18 14:29N 44°24' E 008°52'0 0.0
2016-Jul-18 13:32N 44°24' E 008°52'0 0.0
2016-Jul-18 12:32N 44°24' E 008°52'0 0.0
2016-Jul-18 11:32N 44°24' E 008°52'0 0.0
2016-Jul-18 10:32N 44°24' E 008°52'0 0.0
2016-Jul-18 09:29N 44°24' E 008°52'0 0.0
2016-Jul-18 08:29N 44°24' E 008°52'0 0.0
2016-Jul-18 07:32N 44°24' E 008°52'0 0.0
2016-Jul-18 06:32N 44°24' E 008°52'0 0.0
2016-Jul-18 05:32N 44°24' E 008°52'0 0.0
2016-Jul-18 04:32N 44°24' E 008°52'0 0.0
2016-Jul-18 03:32N 44°24' E 008°52'0 0.0
2016-Jul-18 02:32N 44°24' E 008°52'0 0.0
2016-Jul-18 01:32N 44°24' E 008°52'0 0.0
2016-Jul-18 00:11N 44°24' E 008°52'0 0.0
2016-Jul-17 23:32N 44°24' E 008°52'0 0.0
2016-Jul-17 22:32N 44°24' E 008°52'0 0.0
2016-Jul-17 21:26N 44°24' E 008°52'0 0.0
2016-Jul-17 20:34N 44°24' E 008°52'2 1.8
2016-Jul-17 19:34N 44°23' E 008°54'1 0.5
2016-Jul-17 18:33N 44°23' E 008°55'0 0.1
2016-Jul-17 17:33N 44°23' E 008°55'0 0.0
2016-Jul-17 16:33N 44°23' E 008°55'  
Track history (hours):
 
Tides and Currents Weather Stations Pressure Air Temp Water Temp Dewpoint Dewpoint Depression Visibility Wind Speed Wind Dir Waves Ship Positions

Cdry Blue

Last reported at 2016-Jul-27 16:32 UTC. Time now 2016-Jul-27 17:16 UTC.
Position N 44°23' E 008°55'.

Length 108 m; draft 7.1 m.

Type: Cargo ship. MMSI: 247289300.

Date/timePositionNaut miles runAvg speedWind from/ knotsBaromVisibWave heightAir tempDewpointWater temp
2016-Jul-27 16:32N 44°23' E 008°55'0 0.0
2016-Jul-27 15:32N 44°23' E 008°55'0 0.0
2016-Jul-27 14:32N 44°23' E 008°55'0 0.0
2016-Jul-27 13:32N 44°23' E 008°55'0 0.0
2016-Jul-27 12:32N 44°23' E 008°55'0 0.0
2016-Jul-27 11:29N 44°23' E 008°55'0 0.0
2016-Jul-27 10:32N 44°23' E 008°55'0 0.0
2016-Jul-27 09:32N 44°23' E 008°55'0 0.0
2016-Jul-27 08:32N 44°23' E 008°55'0 0.0
2016-Jul-27 07:32N 44°23' E 008°55'0 0.0
2016-Jul-27 06:32N 44°23' E 008°55'0 0.0
2016-Jul-27 05:32N 44°23' E 008°55'0 0.0
2016-Jul-27 04:32N 44°23' E 008°55'0 0.0
2016-Jul-27 03:32N 44°23' E 008°55'0 0.0
2016-Jul-27 02:32N 44°23' E 008°55'0 0.0
2016-Jul-27 01:32N 44°23' E 008°55'0 0.0
2016-Jul-27 00:32N 44°23' E 008°55'0 0.1
2016-Jul-26 23:32N 44°23' E 008°55'0 0.0
2016-Jul-26 22:29N 44°23' E 008°55'0 0.1
2016-Jul-26 21:32N 44°23' E 008°55'0 0.1
2016-Jul-26 20:32N 44°23' E 008°55'0 0.0
2016-Jul-26 19:32N 44°23' E 008°55'0 0.0
2016-Jul-26 18:32N 44°23' E 008°55'0 0.1
2016-Jul-26 17:32N 44°23' E 008°55'0 0.0
2016-Jul-26 16:32N 44°23' E 008°55'0 0.0
2016-Jul-26 15:32N 44°23' E 008°55'0 0.0
2016-Jul-26 14:32N 44°23' E 008°55'0 0.0
2016-Jul-26 13:32N 44°23' E 008°55'0 0.0
2016-Jul-26 12:29N 44°23' E 008°55'0 0.0
2016-Jul-26 11:32N 44°23' E 008°55'0 0.0
2016-Jul-26 10:26N 44°23' E 008°55'0 0.0
2016-Jul-26 09:32N 44°23' E 008°55'1 1.1
2016-Jul-26 08:33N 44°23' E 008°55'9 9.5
2016-Jul-26 07:33N 44°15' E 009°03'1111.3
2016-Jul-26 06:33N 44°04' E 009°09'1211.7
2016-Jul-26 05:33N 43°54' E 009°15'1111.2
2016-Jul-26 04:33N 43°43' E 009°22'1111.4
2016-Jul-26 03:33N 43°33' E 009°28'1111.0
2016-Jul-26 02:32N 43°25' E 009°39'1010.7
2016-Jul-26 01:33N 43°19' E 009°51'1110.5
2016-Jul-26 00:33N 43°12' E 010°01'1010.2
2016-Jul-25 23:33N 43°05' E 010°12'1010.3
2016-Jul-25 22:34N 42°59' E 010°23'10 9.8
2016-Jul-25 21:33N 42°51' E 010°31'12 9.9
2016-Jul-25 20:23N 42°42' E 010°41'8 9.8
2016-Jul-25 19:33N 42°36' E 010°48'11 9.5
2016-Jul-25 18:27N 42°27' E 010°57'24210.5
2016-Jul-24 19:27N 39°51' E 015°03'4210.7
2016-Jul-24 15:30N 39°11' E 015°20'1010.3
2016-Jul-24 14:33N 39°02' E 015°24'1010.3
2016-Jul-24 13:33N 38°52' E 015°28'1110.8
2016-Jul-24 12:32N 38°42' E 015°33'1010.6
2016-Jul-24 11:33N 38°32' E 015°37'1010.3
2016-Jul-24 10:33N 38°22' E 015°41'8 8.3
2016-Jul-24 09:33N 38°14' E 015°38'1010.0
2016-Jul-24 08:33N 38°04' E 015°35'10 9.8
2016-Jul-24 07:32N 37°55' E 015°38'1110.9
2016-Jul-24 06:33N 37°52' E 015°51'  
2016-Jul-20 16:11N 38°11' E 016°29'3011.4
2016-Jul-20 13:33N 37°52' E 015°60'1111.1
2016-Jul-20 12:33N 37°53' E 015°46'1111.1
2016-Jul-20 11:33N 37°60' E 015°35'1414.2
2016-Jul-20 10:33N 38°14' E 015°36'1110.9
2016-Jul-20 09:33N 38°25' E 015°37'1212.5
2016-Jul-20 08:33N 38°36' E 015°30'1312.7
2016-Jul-20 07:32N 38°48' E 015°23'1212.7
2016-Jul-20 06:34N 38°59' E 015°17'1312.5
2016-Jul-20 05:31N 39°11' E 015°09'8612.3
2016-Jul-19 22:31N 40°24' E 014°12'1212.8
2016-Jul-19 21:33N 40°32' E 013°59'1313.0
2016-Jul-19 20:33N 40°40' E 013°46'1313.0
2016-Jul-19 19:34N 40°49' E 013°34'1313.2
2016-Jul-19 18:33N 40°57' E 013°20'1313.2
2016-Jul-19 17:34N 41°05' E 013°06'1413.2
2016-Jul-19 16:29N 41°13' E 012°51'1213.3
2016-Jul-19 15:33N 41°21' E 012°37'1313.3
2016-Jul-19 14:33N 41°28' E 012°23'1313.2
2016-Jul-19 13:33N 41°37' E 012°10'5313.3
2016-Jul-19 09:33N 42°13' E 011°17'1613.5
2016-Jul-19 08:22N 42°24' E 011°01'1313.3
2016-Jul-19 07:24N 42°34' E 010°50'3913.6
2016-Jul-19 04:33N 43°03' E 010°15'1312.9
2016-Jul-19 03:33N 43°11' E 010°02'1313.3
2016-Jul-19 02:33N 43°20' E 009°48'1313.2
2016-Jul-19 01:33N 43°28' E 009°34'1212.4
2016-Jul-19 00:33N 43°39' E 009°24'1312.6
2016-Jul-18 23:33N 43°50' E 009°17'1312.8
2016-Jul-18 22:33N 44°02' E 009°10'1312.8
2016-Jul-18 21:33N 44°13' E 009°02'1212.1
2016-Jul-18 20:33N 44°24' E 008°54'1 1.3
2016-Jul-18 19:32N 44°24' E 008°52'0 0.0
2016-Jul-18 18:32N 44°24' E 008°52'0 0.0
2016-Jul-18 17:32N 44°24' E 008°52'0 0.0
2016-Jul-18 16:32N 44°24' E 008°52'0 0.0
2016-Jul-18 15:32N 44°24' E 008°52'0 0.0
2016-Jul-18 14:29N 44°24' E 008°52'0 0.0
2016-Jul-18 13:32N 44°24' E 008°52'0 0.0
2016-Jul-18 12:32N 44°24' E 008°52'0 0.0
2016-Jul-18 11:32N 44°24' E 008°52'0 0.0
2016-Jul-18 10:32N 44°24' E 008°52'0 0.0
2016-Jul-18 09:29N 44°24' E 008°52'0 0.0
2016-Jul-18 08:29N 44°24' E 008°52'0 0.0
2016-Jul-18 07:32N 44°24' E 008°52'0 0.0
2016-Jul-18 06:32N 44°24' E 008°52'0 0.0
2016-Jul-18 05:32N 44°24' E 008°52'0 0.0
2016-Jul-18 04:32N 44°24' E 008°52'0 0.0
2016-Jul-18 03:32N 44°24' E 008°52'0 0.0
2016-Jul-18 02:32N 44°24' E 008°52'0 0.0
2016-Jul-18 01:32N 44°24' E 008°52'0 0.0
2016-Jul-18 00:11N 44°24' E 008°52'0 0.0
2016-Jul-17 23:32N 44°24' E 008°52'0 0.0
2016-Jul-17 22:32N 44°24' E 008°52'0 0.0
2016-Jul-17 21:26N 44°24' E 008°52'0 0.0
2016-Jul-17 20:34N 44°24' E 008°52'2 1.8
2016-Jul-17 19:34N 44°23' E 008°54'1 0.5
2016-Jul-17 18:33N 44°23' E 008°55'0 0.1
2016-Jul-17 17:33N 44°23' E 008°55'0 0.0
2016-Jul-17 16:33N 44°23' E 008°55'  

Dump ship's entire track history